Time;durP1;ratioP1;P1;durP2;ratioP2;P2;SDS_P1;SDS_P2;PMS_P1;PMS_P2;Temp;Humidity;BMP_temperature;BMP_pressure;BME280_temperature;BME280_humidity;BME280_pressure;Samples;Min_cycle;Max_cycle;Signal;HPM_P1;HPM_P2
2021/01/07 00:00:26;;;;;;;36.17;21.10;;;;;;;1.09;89.52;100143.09;5035108;28;20079;-74
2021/01/07 00:02:52;;;;;;;37.15;21.30;;;;;;;1.01;89.00;100106.50;5033833;28;20049;-73
2021/01/07 00:05:18;;;;;;;37.03;21.70;;;;;;;1.21;89.05;100145.47;5035063;28;20054;-74
2021/01/07 00:07:44;;;;;;;40.65;22.73;;;;;;;1.07;89.44;100123.88;5034787;28;20053;-72
2021/01/07 00:10:11;;;;;;;32.72;19.75;;;;;;;1.18;89.25;100137.66;5035260;28;20350;-74
2021/01/07 00:12:37;;;;;;;36.22;20.73;;;;;;;1.14;89.31;100127.25;5035043;28;20347;-74
2021/01/07 00:15:04;;;;;;;34.95;20.67;;;;;;;1.11;89.22;100124.66;5033591;28;20042;-74
2021/01/07 00:17:31;;;;;;;33.97;19.52;;;;;;;1.12;89.27;100131.66;5034228;28;20064;-73
2021/01/07 00:19:57;;;;;;;40.38;21.98;;;;;;;1.06;89.85;100128.28;5033370;28;20049;-73
2021/01/07 00:22:23;;;;;;;31.33;19.08;;;;;;;1.07;89.19;100118.63;5034455;28;20139;-73
2021/01/07 00:24:49;;;;;;;39.63;21.83;;;;;;;1.12;89.58;100131.66;5033423;28;20402;-74
2021/01/07 00:27:15;;;;;;;33.17;19.75;;;;;;;1.13;89.08;100126.38;5034749;28;20053;-74
2021/01/07 00:29:42;;;;;;;36.20;21.40;;;;;;;1.08;89.56;100130.84;5036117;28;20103;-74
2021/01/07 00:32:08;;;;;;;37.35;21.27;;;;;;;1.05;89.38;100126.53;5038422;28;20103;-73
2021/01/07 00:34:34;;;;;;;36.45;21.20;;;;;;;1.02;89.49;100126.63;5038942;28;20041;-73
2021/01/07 00:37:00;;;;;;;39.65;21.85;;;;;;;1.05;89.75;100123.06;5037682;28;20053;-73
2021/01/07 00:39:26;;;;;;;36.42;21.40;;;;;;;1.05;89.43;100116.00;5038188;28;20099;-73
2021/01/07 00:41:57;;;;;;;33.20;21.30;;;;;;;0.97;89.92;100107.44;5038063;28;20053;-75
2021/01/07 00:44:24;;;;;;;34.45;20.20;;;;;;;0.97;89.87;100117.13;5036814;28;20443;-73
2021/01/07 00:46:54;;;;;;;35.88;20.92;;;;;;;1.02;90.15;100120.47;5036810;28;20050;-73
2021/01/07 00:49:20;;;;;;;36.83;21.45;;;;;;;0.96;89.90;100105.72;5037326;28;20057;-75
2021/01/07 00:51:47;;;;;;;36.95;20.15;;;;;;;1.00;89.47;100117.03;5038277;28;20121;-74
2021/01/07 00:54:14;;;;;;;37.17;20.02;;;;;;;1.00;89.55;100106.50;5037807;28;20085;-74
2021/01/07 00:56:41;;;;;;;34.25;20.55;;;;;;;0.96;89.88;100116.22;5038000;28;20091;-74
2021/01/07 00:59:07;;;;;;;41.35;20.05;;;;;;;0.99;89.58;100116.19;5037754;28;20068;-73
2021/01/07 01:01:42;;;;;;;34.22;19.55;;;;;;;0.92;89.43;100104.03;5037678;28;20049;-74
2021/01/07 01:04:08;;;;;;;33.78;20.35;;;;;;;1.06;89.41;100111.63;5038006;28;20060;-73
2021/01/07 01:06:34;;;;;;;36.15;21.58;;;;;;;0.94;90.33;100112.78;5037546;28;20493;-74
2021/01/07 01:09:01;;;;;;;35.53;20.45;;;;;;;1.03;90.32;100111.72;5037690;28;20053;-74
2021/01/07 01:11:27;;;;;;;31.65;19.13;;;;;;;1.06;89.47;100107.25;5037507;28;20053;-74
2021/01/07 01:13:54;;;;;;;34.67;20.35;;;;;;;0.97;89.38;100093.47;5037331;28;20107;-74
2021/01/07 01:16:26;;;;;;;35.45;20.90;;;;;;;1.09;89.41;100103.66;5037325;28;20119;-75
2021/01/07 01:18:52;;;;;;;34.15;20.10;;;;;;;1.00;89.75;100094.25;5037271;28;20056;-73
2021/01/07 01:21:18;;;;;;;36.67;20.48;;;;;;;1.09;89.26;100103.66;5037294;28;20104;-75
2021/01/07 01:23:44;;;;;;;30.85;18.85;;;;;;;1.03;89.64;100093.31;5037086;28;20052;-74
2021/01/07 01:26:10;;;;;;;33.20;18.48;;;;;;;0.93;89.78;100085.63;5037060;28;20100;-73
2021/01/07 01:28:36;;;;;;;34.40;18.70;;;;;;;1.09;89.17;100103.66;5037129;28;20154;-73
2021/01/07 01:31:02;;;;;;;34.97;20.05;;;;;;;0.99;89.93;100105.66;5052462;28;20108;-75
2021/01/07 01:33:28;;;;;;;39.28;20.00;;;;;;;0.97;89.69;100094.31;5052428;28;20049;-74
2021/01/07 01:35:55;;;;;;;32.42;19.33;;;;;;;1.03;89.80;100103.84;5036895;28;20412;-73
2021/01/07 01:38:21;;;;;;;35.20;19.95;;;;;;;1.00;90.09;100107.41;5036750;28;20504;-76
2021/01/07 01:40:47;;;;;;;32.60;19.33;;;;;;;0.99;90.07;100104.78;5036670;28;20055;-74
2021/01/07 01:43:13;;;;;;;30.98;19.55;;;;;;;1.02;90.54;100102.06;5037120;28;20347;-74
2021/01/07 01:45:39;;;;;;;36.67;20.42;;;;;;;1.01;90.08;100106.50;5035687;28;20107;-74
2021/01/07 01:48:05;;;;;;;37.47;22.23;;;;;;;0.94;90.24;100097.88;5035666;28;20440;-74
2021/01/07 01:50:32;;;;;;;34.60;20.55;;;;;;;1.06;90.00;100096.75;5036890;28;20050;-74
2021/01/07 01:52:58;;;;;;;30.98;20.25;;;;;;;1.07;89.76;100094.97;5035641;28;20139;-75
2021/01/07 01:55:24;;;;;;;39.25;21.42;;;;;;;1.05;89.41;100096.78;5036893;28;20053;-74
2021/01/07 01:57:50;;;;;;;39.42;22.45;;;;;;;1.02;89.84;100104.72;5036830;28;20057;-74
2021/01/07 02:00:17;;;;;;;34.47;22.30;;;;;;;1.02;89.73;100102.06;5036351;28;20157;-73
2021/01/07 02:02:43;;;;;;;41.40;22.50;;;;;;;1.05;89.93;100095.00;5035567;28;20068;-74
2021/01/07 02:05:10;;;;;;;36.88;22.27;;;;;;;1.03;90.04;100102.06;5036401;28;20045;-75
2021/01/07 02:07:39;;;;;;;40.08;23.52;;;;;;;0.96;89.92;100102.25;5036233;28;20355;-73
2021/01/07 02:10:07;;;;;;;37.30;21.02;;;;;;;1.07;89.47;100102.84;5036699;28;20049;-74
2021/01/07 02:12:36;;;;;;;36.75;22.00;;;;;;;1.14;89.97;100112.31;5051235;28;20092;-74
2021/01/07 02:15:02;;;;;;;36.90;22.80;;;;;;;1.18;89.39;100099.97;5036493;28;20115;-74
2021/01/07 02:17:29;;;;;;;40.20;21.75;;;;;;;1.22;89.31;100107.75;5036483;28;20355;-74
2021/01/07 02:19:58;;;;;;;38.58;22.70;;;;;;;1.22;88.89;100107.75;5051423;28;20453;-74
2021/01/07 02:22:24;;;;;;;39.00;22.75;;;;;;;1.12;89.34;100114.13;5036140;28;20057;-74
2021/01/07 02:24:50;;;;;;;42.53;23.92;;;;;;;1.00;89.54;100094.25;5035815;28;20103;-73
2021/01/07 02:27:17;;;;;;;39.20;22.45;;;;;;;1.09;89.67;100103.66;5035987;28;20057;-73
2021/01/07 02:29:43;;;;;;;42.15;23.40;;;;;;;1.08;90.04;100101.94;5035802;28;20105;-74
2021/01/07 02:32:10;;;;;;;37.10;22.25;;;;;;;1.16;89.46;100104.41;5035915;28;20359;-73
2021/01/07 02:34:37;;;;;;;35.67;21.45;;;;;;;1.14;89.31;100096.56;5035825;28;20359;-73
2021/01/07 02:37:05;;;;;;;41.97;23.10;;;;;;;1.07;89.10;100081.81;5036087;28;20057;-73
2021/01/07 02:39:31;;;;;;;38.75;23.27;;;;;;;1.13;89.15;100100.09;5035801;28;20457;-75
2021/01/07 02:41:57;;;;;;;35.67;22.83;;;;;;;1.15;89.12;100098.28;5036035;28;20057;-74
2021/01/07 02:44:24;;;;;;;38.60;23.38;;;;;;;1.01;89.57;100079.31;5034964;28;20050;-74
2021/01/07 02:46:51;;;;;;;40.55;22.35;;;;;;;1.04;89.34;100088.00;5034831;28;20087;-74
2021/01/07 02:49:18;;;;;;;39.40;22.45;;;;;;;1.13;89.46;100094.81;5035608;28;20429;-73
2021/01/07 02:51:45;;;;;;;40.30;22.85;;;;;;;1.15;89.11;100100.06;5035524;28;20056;-73
2021/01/07 02:54:11;;;;;;;39.30;21.10;;;;;;;1.10;88.76;100087.03;5033489;28;20049;-74
2021/01/07 02:56:37;;;;;;;33.75;20.73;;;;;;;1.07;89.06;100080.06;5034473;28;20049;-73
2021/01/07 02:59:04;;;;;;;43.13;25.00;;;;;;;1.11;89.33;100083.50;5035266;28;20049;-73
2021/01/07 03:01:32;;;;;;;42.22;23.35;;;;;;;1.15;88.96;100084.28;5035289;28;20103;-74
2021/01/07 03:03:59;;;;;;;40.08;23.13;;;;;;;1.11;88.73;100072.97;5034998;28;20056;-75
2021/01/07 03:06:25;;;;;;;40.75;24.25;;;;;;;1.16;88.98;100080.75;5050759;28;20049;-75
2021/01/07 03:08:51;;;;;;;38.20;23.00;;;;;;;1.15;88.95;100079.88;5035269;28;20057;-75
2021/01/07 03:11:18;;;;;;;39.25;23.85;;;;;;;1.09;88.84;100069.50;5034385;28;20061;-75
2021/01/07 03:13:44;;;;;;;43.58;24.30;;;;;;;1.05;89.12;100070.50;5035336;28;20060;-75
2021/01/07 03:16:11;;;;;;;44.03;23.45;;;;;;;1.18;89.17;100074.56;5035161;28;20077;-74
2021/01/07 03:18:37;;;;;;;45.15;26.02;;;;;;;1.16;89.31;100068.47;5035143;28;20053;-75
2021/01/07 03:21:03;;;;;;;41.88;24.67;;;;;;;1.22;89.17;100070.09;5035031;28;20049;-74
2021/01/07 03:23:30;;;;;;;38.92;23.98;;;;;;;1.28;88.65;100064.69;5034999;28;20065;-75
2021/01/07 03:25:56;;;;;;;41.53;24.85;;;;;;;1.28;88.23;100062.06;5034068;28;20123;-74
2021/01/07 03:28:23;;;;;;;38.90;23.73;;;;;;;1.19;88.38;100057.00;5034823;28;20394;-74
2021/01/07 03:30:49;;;;;;;46.28;26.05;;;;;;;1.05;88.91;100057.34;5035095;28;20060;-74
2021/01/07 03:33:15;;;;;;;45.17;26.00;;;;;;;1.00;89.14;100048.69;5035291;28;20057;-74
2021/01/07 03:35:41;;;;;;;45.80;26.65;;;;;;;1.00;89.68;100046.06;5034935;28;20046;-74
2021/01/07 03:38:07;;;;;;;48.88;25.52;;;;;;;1.05;89.24;100052.94;5050412;28;20060;-74
2021/01/07 03:40:33;;;;;;;43.70;25.67;;;;;;;1.05;88.78;100041.56;5034804;28;20382;-75
2021/01/07 03:42:59;;;;;;;39.28;23.92;;;;;;;1.06;89.01;100044.19;5035123;28;20135;-75
2021/01/07 03:45:26;;;;;;;41.80;24.92;;;;;;;1.16;89.02;100049.19;5034692;28;20045;-75
2021/01/07 03:47:52;;;;;;;45.10;25.10;;;;;;;1.12;89.24;100052.78;5034778;28;20049;-74
2021/01/07 03:50:18;;;;;;;43.30;24.17;;;;;;;1.15;89.20;100050.94;5051255;28;20053;-74
2021/01/07 03:52:44;;;;;;;51.00;24.67;;;;;;;1.04;88.99;100050.38;5034783;28;20347;-74
2021/01/07 03:55:11;;;;;;;44.28;26.05;;;;;;;0.99;88.97;100020.69;5034620;28;20050;-74
2021/01/07 03:57:37;;;;;;;42.35;24.42;;;;;;;1.14;88.97;100048.38;5033713;28;20055;-74
2021/01/07 04:00:05;;;;;;;45.83;25.75;;;;;;;1.11;89.10;100027.41;5033986;28;20049;-74
2021/01/07 04:02:31;;;;;;;47.08;26.13;;;;;;;1.26;88.85;100044.59;5034685;28;20053;-74
2021/01/07 04:04:57;;;;;;;45.72;26.55;;;;;;;1.26;88.79;100044.59;5035997;28;20115;-74
2021/01/07 04:07:23;;;;;;;46.90;27.10;;;;;;;1.15;88.73;100037.81;5038551;28;20045;-74
2021/01/07 04:09:49;;;;;;;51.90;27.98;;;;;;;1.07;89.34;100040.63;5038387;28;20155;-74
2021/01/07 04:12:15;;;;;;;54.20;28.98;;;;;;;1.05;89.13;100026.66;5038492;28;20057;-74
2021/01/07 04:14:59;;;;;;;53.42;29.20;;;;;;;1.10;89.27;100044.09;5051768;28;20687;-74
2021/01/07 04:17:25;;;;;;;55.58;28.20;;;;;;;1.06;89.38;100038.03;5038361;28;20437;-74
2021/01/07 04:19:51;;;;;;;51.83;28.42;;;;;;;0.84;89.59;99996.50;5038271;28;20057;-74
2021/01/07 04:22:17;;;;;;;52.53;28.33;;;;;;;1.05;89.90;100031.06;5038461;28;20099;-75
2021/01/07 04:24:43;;;;;;;52.95;29.83;;;;;;;1.13;89.38;100030.88;5038184;28;20053;-75
2021/01/07 04:27:10;;;;;;;47.17;27.65;;;;;;;1.16;89.23;100015.91;5038217;28;20050;-74
2021/01/07 04:29:36;;;;;;;53.75;28.85;;;;;;;1.29;89.17;100036.59;5037085;28;20064;-74
2021/01/07 04:32:03;;;;;;;54.50;28.05;;;;;;;1.24;89.00;100028.00;5038340;28;20099;-75
2021/01/07 04:34:29;;;;;;;56.08;30.70;;;;;;;1.12;89.39;100021.25;5038256;28;20065;-76
2021/01/07 04:36:55;;;;;;;51.72;27.33;;;;;;;1.15;89.76;100019.41;5038035;28;20462;-75
2021/01/07 04:39:21;;;;;;;53.13;29.17;;;;;;;1.17;89.02;100032.53;5038108;28;20053;-74
2021/01/07 04:41:47;;;;;;;53.33;28.15;;;;;;;1.20;89.11;100022.78;5038071;28;20049;-75
2021/01/07 04:44:14;;;;;;;53.72;29.38;;;;;;;1.21;89.33;100021.88;5038302;28;20419;-75
2021/01/07 04:46:40;;;;;;;55.38;28.65;;;;;;;1.15;89.34;100016.78;5037776;28;20065;-75
2021/01/07 04:49:06;;;;;;;54.50;30.25;;;;;;;0.92;90.00;99984.03;5037952;28;20473;-75
2021/01/07 04:51:33;;;;;;;57.90;29.70;;;;;;;1.08;89.55;100013.44;5037887;28;20060;-75
2021/01/07 04:54:00;;;;;;;55.65;31.08;;;;;;;1.13;90.02;100013.34;5037930;28;20076;-75
2021/01/07 04:56:26;;;;;;;59.35;30.02;;;;;;;1.18;89.76;100013.22;5037939;28;20050;-75
2021/01/07 04:58:52;;;;;;;54.72;29.50;;;;;;;1.12;89.51;100008.09;5037698;28;20057;-74
2021/01/07 05:01:18;;;;;;;53.50;30.73;;;;;;;1.05;89.81;100008.25;5037761;28;20346;-75
2021/01/07 05:03:45;;;;;;;54.83;31.55;;;;;;;0.98;89.77;99998.78;5037576;28;20052;-74
2021/01/07 05:06:13;;;;;;;58.55;30.88;;;;;;;1.04;89.81;100018.81;5037396;28;20055;-74
2021/01/07 05:08:39;;;;;;;58.38;29.25;;;;;;;1.10;89.55;100013.41;5037760;28;20370;-74
2021/01/07 05:11:05;;;;;;;57.22;30.73;;;;;;;0.80;89.73;99963.31;5037557;28;20053;-74
2021/01/07 05:13:31;;;;;;;57.33;28.67;;;;;;;1.08;89.46;100007.31;5037728;28;20065;-74
2021/01/07 05:15:58;;;;;;;57.17;30.92;;;;;;;1.08;89.98;100000.31;5036292;28;20341;-73
2021/01/07 05:18:25;;;;;;;60.72;31.55;;;;;;;1.20;89.33;100011.44;5037360;28;20054;-74
2021/01/07 05:20:51;;;;;;;57.92;29.88;;;;;;;1.14;89.32;100007.16;5037506;28;20061;-74
2021/01/07 05:23:20;;;;;;;56.47;29.88;;;;;;;1.13;89.26;100012.50;5037822;28;20111;-74
2021/01/07 05:25:46;;;;;;;58.20;31.33;;;;;;;1.07;89.57;100006.47;5037163;28;20092;-75
2021/01/07 05:28:14;;;;;;;55.72;30.10;;;;;;;1.07;89.54;100009.09;5037296;28;20061;-75
2021/01/07 05:30:43;;;;;;;58.70;31.52;;;;;;;1.11;89.51;100011.63;5037015;28;20406;-75
2021/01/07 05:33:10;;;;;;;55.47;29.90;;;;;;;1.14;89.82;100017.69;5037137;28;20060;-75
2021/01/07 05:35:36;;;;;;;59.40;31.58;;;;;;;1.08;90.11;100004.69;5036541;28;20079;-75
2021/01/07 05:38:06;;;;;;;57.25;30.15;;;;;;;1.00;90.19;100004.00;5037365;28;20354;-77
2021/01/07 05:40:37;;;;;;;60.28;30.92;;;;;;;0.93;90.54;100003.31;5037173;28;20351;-75
2021/01/07 05:43:13;;;;;;;60.63;33.15;;;;;;;0.88;90.90;99985.00;5036914;28;20064;-75
2021/01/07 05:45:42;;;;;;;64.97;32.25;;;;;;;1.00;90.83;99990.88;5036867;28;20041;-75
2021/01/07 05:48:10;;;;;;;63.95;33.72;;;;;;;1.10;90.53;100000.28;5036886;28;20049;-75
2021/01/07 05:50:39;;;;;;;58.00;30.75;;;;;;;1.05;90.19;99994.25;5036767;28;20049;-76
2021/01/07 05:53:05;;;;;;;59.10;29.92;;;;;;;0.99;90.26;99990.03;5036557;28;20053;-76
2021/01/07 05:55:31;;;;;;;59.97;32.28;;;;;;;1.05;90.85;99994.25;5036498;28;20111;-74
2021/01/07 05:58:02;;;;;;;63.20;33.10;;;;;;;1.03;90.91;99988.19;5036569;28;20053;-75
2021/01/07 06:00:32;;;;;;;64.20;31.67;;;;;;;0.98;91.05;99988.28;5039156;28;20053;-75
2021/01/07 06:02:59;;;;;;;65.30;31.70;;;;;;;1.02;91.36;99989.06;5054774;28;20060;-75
2021/01/07 06:05:26;;;;;;;61.08;31.15;;;;;;;1.06;90.74;99991.59;5056717;28;20057;-74
2021/01/07 06:07:55;;;;;;;59.63;31.02;;;;;;;1.05;90.95;99992.47;5056606;28;20083;-75
2021/01/07 06:10:22;;;;;;;60.97;30.38;;;;;;;1.04;90.82;99990.75;5056203;28;20048;-75
2021/01/07 06:12:49;;;;;;;59.75;30.17;;;;;;;1.06;90.77;99985.47;5056220;28;20049;-75
2021/01/07 06:15:18;;;;;;;61.15;31.67;;;;;;;1.05;91.17;99991.63;5056229;28;20048;-75
2021/01/07 06:17:45;;;;;;;57.38;29.70;;;;;;;1.06;90.87;99991.59;5056067;28;20056;-74
2021/01/07 06:20:20;;;;;;;58.60;28.52;;;;;;;1.01;90.42;99997.84;5056540;28;20494;-73
2021/01/07 06:22:51;;;;;;;56.40;28.45;;;;;;;1.03;90.79;99985.56;5056106;28;20052;-74
2021/01/07 06:25:21;;;;;;;49.78;25.45;;;;;;;1.03;90.60;99990.81;5041180;28;20049;-74
2021/01/07 06:27:50;;;;;;;50.78;26.63;;;;;;;0.86;90.94;99951.81;5035682;28;20061;-75
2021/01/07 06:30:16;;;;;;;55.00;28.02;;;;;;;1.02;91.07;99989.06;5036257;28;20061;-74
2021/01/07 06:32:47;;;;;;;49.28;27.70;;;;;;;1.02;91.06;99989.94;5035827;28;20057;-74
2021/01/07 06:35:14;;;;;;;;;;;;;;;1.02;91.36;99994.31;5036019;28;20054;-75
2021/01/07 06:37:41;;;;;;;49.83;25.45;;;;;;;1.09;90.84;99993.25;5035683;28;19990;-75
2021/01/07 06:40:10;;;;;;;50.67;28.27;;;;;;;1.02;90.61;99981.19;5035966;28;20049;-74
2021/01/07 06:42:41;;;;;;;46.38;23.83;;;;;;;1.05;90.69;99984.59;5039262;28;20140;-72
2021/01/07 06:45:09;;;;;;;;;;;;;;;0.93;90.54;99995.44;5055336;28;20056;-74
2021/01/07 06:47:41;;;;;;;46.03;24.13;;;;;;;0.88;90.68;99985.00;5055452;28;19924;-73
2021/01/07 06:50:09;;;;;;;51.17;24.85;;;;;;;0.92;90.93;99991.03;5037981;28;20111;-73
2021/01/07 06:52:46;;;;;;;45.60;23.98;;;;;;;0.90;91.09;99993.72;5034736;28;20155;-72
2021/01/07 06:55:14;;;;;;;44.00;23.13;;;;;;;0.86;91.41;99989.44;5035522;28;20053;-72
2021/01/07 06:57:48;;;;;;;44.90;23.75;;;;;;;0.90;91.52;99998.13;5033885;28;20049;-73
2021/01/07 07:00:19;;;;;;;47.97;24.55;;;;;;;0.88;91.74;99992.03;5051240;28;20045;-74
2021/01/07 07:03:17;;;;;;;45.93;25.10;;;;;;;0.73;91.79;99991.50;5045881;28;20041;-73
2021/01/07 07:05:54;;;;;;;45.83;24.98;;;;;;;0.70;92.13;99985.47;5027777;28;20040;-73
2021/01/07 07:08:34;;;;;;;49.70;25.95;;;;;;;0.75;92.83;99992.31;5050439;28;20045;-73
2021/01/07 07:11:12;;;;;;;47.03;24.38;;;;;;;0.86;92.56;99989.44;5043311;28;20069;-73
2021/01/07 07:13:43;;;;;;;44.72;23.70;;;;;;;0.90;91.82;99988.47;5035066;28;20049;-79
2021/01/07 07:16:14;;;;;;;43.63;24.15;;;;;;;0.80;92.52;99984.31;5034301;28;20073;-76
2021/01/07 07:18:40;;;;;;;49.83;24.52;;;;;;;0.85;92.28;99985.09;5050849;28;20053;-72
2021/01/07 07:21:15;;;;;;;48.42;25.88;;;;;;;0.87;92.20;99982.44;5036146;28;20111;-80
2021/01/07 07:23:44;;;;;;;50.65;26.63;;;;;;;0.84;92.46;99986.00;5035470;28;20057;-75
2021/01/07 07:26:13;;;;;;;53.70;25.10;;;;;;;0.80;92.51;99985.19;5035201;28;20084;-76
2021/01/07 07:28:44;;;;;;;46.47;24.00;;;;;;;0.86;92.81;99984.19;5034872;28;20436;-75
2021/01/07 07:31:12;;;;;;;48.90;25.45;;;;;;;0.83;92.62;99989.53;5035377;28;20049;-74
2021/01/07 07:33:42;;;;;;;47.25;24.02;;;;;;;0.80;92.61;99984.31;5031281;28;20049;-76
2021/01/07 07:36:11;;;;;;;52.07;23.93;;;;;;;0.83;92.61;100000.03;5035054;28;20412;-75
2021/01/07 07:38:39;;;;;;;44.22;22.70;;;;;;;0.82;92.13;100000.94;5034742;28;20286;-74
2021/01/07 07:41:09;;;;;;;46.97;24.08;;;;;;;0.78;92.91;100000.16;5035025;28;20053;-74
2021/01/07 07:43:37;;;;;;;44.80;24.30;;;;;;;0.72;92.74;99992.41;5033700;28;20483;-75
2021/01/07 07:46:05;;;;;;;46.53;23.98;;;;;;;0.62;93.34;99997.00;5033536;28;20111;-73
2021/01/07 07:48:36;;;;;;;46.47;24.73;;;;;;;0.67;92.95;100010.88;5033172;28;20063;-75
2021/01/07 07:51:13;;;;;;;46.75;23.40;;;;;;;0.60;93.47;100001.41;5034789;28;20049;-74
2021/01/07 07:53:41;;;;;;;42.60;22.95;;;;;;;0.61;93.10;100003.13;5032453;28;20091;-75
2021/01/07 07:56:23;;;;;;;42.22;22.98;;;;;;;0.60;93.47;100014.53;5032911;28;20046;-75
2021/01/07 07:59:07;;;;;;;41.10;21.13;;;;;;;0.64;93.83;100017.97;5032663;28;20058;-74
2021/01/07 08:01:34;;;;;;;35.90;20.95;;;;;;;0.57;93.56;100019.88;5033031;28;20064;-74
2021/01/07 08:04:01;;;;;;;38.83;20.58;;;;;;;0.61;94.00;100015.41;5030704;28;20050;-74
2021/01/07 08:06:27;;;;;;;35.45;20.15;;;;;;;0.56;93.59;100017.28;5033418;28;20062;-74
2021/01/07 08:09:08;;;;;;;36.47;19.77;;;;;;;0.57;93.87;100022.50;5049760;28;20053;-73
2021/01/07 08:11:42;;;;;;;36.08;20.17;;;;;;;0.55;94.10;100026.94;5033729;28;20061;-75
2021/01/07 08:14:11;;;;;;;37.45;18.48;;;;;;;0.62;93.57;100027.66;5029109;28;20360;-74
2021/01/07 08:16:38;;;;;;;33.70;18.05;;;;;;;0.45;93.46;100002.63;5009396;28;20046;-74
2021/01/07 08:19:18;;;;;;;34.10;17.77;;;;;;;0.59;93.34;100018.06;5034776;28;20049;-74
2021/01/07 08:21:53;;;;;;;28.35;18.00;;;;;;;0.55;93.45;100013.81;5033811;28;20054;-74
2021/01/07 08:24:22;;;;;;;32.65;17.23;;;;;;;0.68;93.05;100027.50;5034334;28;20050;-75
2021/01/07 08:26:58;;;;;;;31.08;18.42;;;;;;;0.61;93.01;100029.41;5034478;28;20049;-75
2021/01/07 08:29:26;;;;;;;35.83;18.55;;;;;;;0.52;93.65;100026.97;5033955;28;20061;-74
2021/01/07 08:31:56;;;;;;;31.10;18.00;;;;;;;0.46;93.86;100033.25;5053352;28;20107;-74
2021/01/07 08:34:23;;;;;;;30.35;17.45;;;;;;;0.50;93.61;100034.88;5052234;28;20048;-74
2021/01/07 08:36:50;;;;;;;28.42;17.67;;;;;;;0.44;93.70;100036.78;5053333;28;20373;-75
2021/01/07 08:39:16;;;;;;;31.40;17.95;;;;;;;0.51;93.95;100041.88;5052721;28;20053;-76
2021/01/07 08:41:44;;;;;;;35.90;18.63;;;;;;;0.46;94.05;100024.47;5037088;28;20058;-75
2021/01/07 08:44:12;;;;;;;33.60;18.73;;;;;;;0.24;94.21;99996.94;5054566;28;20390;-81
2021/01/07 08:46:43;;;;;;;33.75;19.77;;;;;;;0.43;94.64;100035.06;5031894;28;20049;-73
2021/01/07 08:49:18;;;;;;;;;;;;;;;0.45;94.19;100025.38;5034486;28;20454;-75
2021/01/07 08:51:46;;;;;;;32.85;18.42;;;;;;;0.47;94.28;100034.09;5036005;28;19925;-74
2021/01/07 08:54:18;;;;;;;30.65;18.10;;;;;;;0.53;93.91;100034.84;5037838;28;20093;-76
2021/01/07 08:56:47;;;;;;;30.10;17.58;;;;;;;0.56;94.37;100033.03;5036763;28;20431;-73
2021/01/07 08:59:33;;;;;;;32.33;18.02;;;;;;;0.57;93.67;100019.88;5037611;28;20061;-78
2021/01/07 09:02:17;;;;;;;31.23;17.65;;;;;;;0.67;93.47;100021.38;5035961;28;20053;-73
2021/01/07 09:04:43;;;;;;;36.35;19.20;;;;;;;0.61;93.95;100029.41;5036751;28;20088;-74
2021/01/07 09:07:13;;;;;;;33.25;18.88;;;;;;;0.56;94.00;100033.91;5051215;28;20052;-70
2021/01/07 09:09:51;;;;;;;33.92;19.10;;;;;;;0.56;94.32;100028.66;5035380;28;20058;-70
2021/01/07 09:12:26;;;;;;;35.05;18.77;;;;;;;0.67;94.22;100028.41;5034247;28;20061;-73
2021/01/07 09:15:23;;;;;;;37.47;21.52;;;;;;;0.53;94.26;100019.06;5034866;28;20059;-74
2021/01/07 09:17:55;;;;;;;35.45;20.60;;;;;;;0.65;94.00;100036.31;5052817;28;20056;-71
2021/01/07 09:20:29;;;;;;;36.90;20.58;;;;;;;0.72;94.19;100030.94;5051791;28;20061;-75
2021/01/07 09:23:07;;;;;;;35.45;21.10;;;;;;;0.66;93.72;100027.53;5036243;28;20062;-72
2021/01/07 09:25:34;;;;;;;34.05;20.20;;;;;;;0.61;93.91;100029.41;5036211;28;20434;-73
2021/01/07 09:28:01;;;;;;;32.72;19.63;;;;;;;0.57;94.20;100025.13;5036907;28;20049;-74
2021/01/07 09:30:28;;;;;;;38.45;22.02;;;;;;;0.64;94.62;100029.34;5037389;28;20049;-72
2021/01/07 09:32:55;;;;;;;40.35;21.08;;;;;;;0.61;94.04;100028.56;5036992;28;20054;-73
2021/01/07 09:35:22;;;;;;;40.83;21.83;;;;;;;0.71;94.61;100026.59;5036854;28;20049;-73
2021/01/07 09:37:58;;;;;;;38.47;21.98;;;;;;;0.78;94.28;100028.16;5036971;28;20055;-73
2021/01/07 09:40:24;;;;;;;34.25;19.95;;;;;;;0.79;93.57;100022.00;5037171;28;20053;-75
2021/01/07 09:42:51;;;;;;;33.13;19.23;;;;;;;0.74;93.87;100022.13;5052100;28;20061;-75
2021/01/07 09:45:17;;;;;;;33.40;20.42;;;;;;;0.73;94.14;100019.53;5036820;28;20056;-75
2021/01/07 09:47:44;;;;;;;33.67;19.58;;;;;;;0.60;94.25;100004.03;5035148;28;20564;-74
2021/01/07 09:50:13;;;;;;;32.42;19.48;;;;;;;0.64;94.46;100026.72;5035922;28;20427;-73
2021/01/07 09:52:39;;;;;;;34.15;19.60;;;;;;;0.71;94.34;100018.69;5036213;28;20439;-74
2021/01/07 09:55:07;;;;;;;31.83;17.95;;;;;;;0.76;94.21;100022.09;5036540;28;20432;-73
2021/01/07 09:57:34;;;;;;;32.55;17.80;;;;;;;0.79;94.09;100027.28;5036615;28;20387;-72
2021/01/07 10:00:01;;;;;;;26.42;16.45;;;;;;;0.79;93.22;100015.00;5035948;28;20062;-71
2021/01/07 10:02:27;;;;;;;33.60;17.63;;;;;;;0.80;94.02;100026.38;5037455;28;20631;-72
2021/01/07 10:04:53;;;;;;;25.90;15.75;;;;;;;0.88;93.96;100028.81;5038069;28;20048;-72
2021/01/07 10:07:19;;;;;;;38.65;16.58;;;;;;;0.85;94.20;100021.88;5050129;28;20342;-72
2021/01/07 10:09:46;;;;;;;24.33;15.52;;;;;;;0.86;94.11;100025.38;5043560;28;20060;-71
2021/01/07 10:12:13;;;;;;;26.15;14.35;;;;;;;0.87;93.60;100029.72;5039277;28;20057;-71
2021/01/07 10:14:39;;;;;;;21.88;14.98;;;;;;;0.89;93.66;100022.66;5039365;28;20045;-71
2021/01/07 10:17:07;;;;;;;28.75;16.05;;;;;;;0.77;94.35;100008.06;5033427;28;20208;-71
2021/01/07 10:19:36;;;;;;;24.02;13.85;;;;;;;0.92;94.32;100015.56;5047066;28;20370;-70
2021/01/07 10:22:10;;;;;;;21.27;13.88;;;;;;;0.97;93.63;100018.09;5034581;28;20122;-74
2021/01/07 10:24:47;;;;;;;20.88;13.57;;;;;;;0.99;93.86;100020.69;5032843;28;20474;-72
2021/01/07 10:27:16;;;;;;;19.35;12.32;;;;;;;0.98;92.87;100018.97;5036760;28;20058;-76
2021/01/07 10:29:43;;;;;;;22.30;12.93;;;;;;;0.88;93.96;100013.91;5035456;28;20064;-73
2021/01/07 10:32:13;;;;;;;19.05;13.60;;;;;;;0.83;94.01;100009.66;5041814;28;20049;-71
2021/01/07 10:34:45;;;;;;;14.60;9.33;;;;;;;0.88;94.05;100002.56;5033427;28;20121;-72
2021/01/07 10:37:13;;;;;;;20.48;12.05;;;;;;;1.00;93.86;100020.66;5042484;28;20045;-74
2021/01/07 10:39:42;;;;;;;17.90;11.43;;;;;;;1.02;93.64;100017.97;5038886;28;20351;-72
2021/01/07 10:42:11;;;;;;;20.40;11.38;;;;;;;0.94;93.13;100007.66;5043727;28;20742;-71
2021/01/07 10:44:38;;;;;;;17.75;11.93;;;;;;;0.90;94.07;100011.25;5049519;28;20045;-71
2021/01/07 10:47:06;;;;;;;20.92;13.13;;;;;;;0.81;94.08;99993.94;5041964;28;20045;-72
2021/01/07 10:49:35;;;;;;;19.88;13.32;;;;;;;0.91;94.31;100003.34;5036438;28;20045;-72
2021/01/07 10:52:07;;;;;;;17.83;12.07;;;;;;;0.97;94.04;100001.47;5036222;28;20127;-72
2021/01/07 10:54:51;;;;;;;17.55;11.38;;;;;;;0.89;93.81;99997.25;5039861;28;20160;-73
2021/01/07 10:57:36;;;;;;;18.10;12.25;;;;;;;0.97;94.34;99998.84;5037051;28;20038;-71
2021/01/07 11:00:11;;;;;;;21.77;13.07;;;;;;;1.02;94.77;99994.31;5039508;28;20103;-74
2021/01/07 11:02:46;;;;;;;18.38;12.23;;;;;;;0.93;94.27;99985.75;5049457;28;20056;-74
2021/01/07 11:05:16;;;;;;;20.00;12.05;;;;;;;1.00;94.30;99989.13;5034951;28;20347;-75
2021/01/07 11:07:57;;;;;;;18.23;11.73;;;;;;;0.93;94.14;99988.41;5037204;28;20045;-76
2021/01/07 11:10:24;;;;;;;18.63;12.43;;;;;;;0.98;93.98;99993.53;5033048;28;20060;-74
2021/01/07 11:12:55;;;;;;;19.27;13.07;;;;;;;0.97;93.58;99986.56;5034485;28;20053;-73
2021/01/07 11:15:25;;;;;;;19.35;12.85;;;;;;;0.97;94.23;99983.94;5030088;28;20660;-71
2021/01/07 11:18:06;;;;;;;18.63;11.73;;;;;;;1.03;94.12;99975.03;5028258;28;20049;-71
2021/01/07 11:20:33;;;;;;;18.55;12.05;;;;;;;1.06;93.45;99985.47;5032103;28;20053;-71
2021/01/07 11:23:00;;;;;;;20.60;13.23;;;;;;;1.05;93.72;99983.75;5033025;28;20049;-72
2021/01/07 11:25:26;;;;;;;21.95;14.73;;;;;;;0.91;94.05;99976.19;5034805;28;20045;-71